sensor_id;sensor_type;location;lat;lon;timestamp;P1;durP1;ratioP1;P2;durP2;ratioP2
5616;SDS011;2830;50.656;7.568;2022-08-19T00:02:00;31.83;;;22.47;;
5616;SDS011;2830;50.656;7.568;2022-08-19T00:04:29;35.17;;;24.87;;
5616;SDS011;2830;50.656;7.568;2022-08-19T00:06:58;34.30;;;23.40;;
5616;SDS011;2830;50.656;7.568;2022-08-19T00:09:26;33.30;;;23.50;;
5616;SDS011;2830;50.656;7.568;2022-08-19T00:11:54;37.57;;;24.27;;
5616;SDS011;2830;50.656;7.568;2022-08-19T00:14:24;35.17;;;23.27;;
5616;SDS011;2830;50.656;7.568;2022-08-19T00:16:53;38.13;;;25.77;;
5616;SDS011;2830;50.656;7.568;2022-08-19T00:19:21;35.70;;;23.10;;
5616;SDS011;2830;50.656;7.568;2022-08-19T00:21:48;33.00;;;22.13;;
5616;SDS011;2830;50.656;7.568;2022-08-19T00:24:16;35.67;;;24.30;;
5616;SDS011;2830;50.656;7.568;2022-08-19T00:26:43;37.70;;;23.67;;
5616;SDS011;2830;50.656;7.568;2022-08-19T00:29:11;34.00;;;24.17;;
5616;SDS011;2830;50.656;7.568;2022-08-19T00:31:41;33.43;;;22.30;;
5616;SDS011;2830;50.656;7.568;2022-08-19T00:34:09;36.40;;;24.00;;
5616;SDS011;2830;50.656;7.568;2022-08-19T00:36:38;35.63;;;22.77;;
5616;SDS011;2830;50.656;7.568;2022-08-19T00:39:05;34.30;;;23.77;;
5616;SDS011;2830;50.656;7.568;2022-08-19T00:41:32;36.20;;;25.20;;
5616;SDS011;2830;50.656;7.568;2022-08-19T00:44:04;36.13;;;25.80;;
5616;SDS011;2830;50.656;7.568;2022-08-19T00:46:34;36.07;;;24.67;;
5616;SDS011;2830;50.656;7.568;2022-08-19T00:49:06;34.57;;;23.87;;
5616;SDS011;2830;50.656;7.568;2022-08-19T00:51:42;37.17;;;24.50;;
5616;SDS011;2830;50.656;7.568;2022-08-19T00:54:12;36.80;;;23.70;;
5616;SDS011;2830;50.656;7.568;2022-08-19T00:56:40;33.10;;;23.33;;
5616;SDS011;2830;50.656;7.568;2022-08-19T00:59:08;35.23;;;24.10;;
5616;SDS011;2830;50.656;7.568;2022-08-19T01:01:36;39.50;;;25.07;;
5616;SDS011;2830;50.656;7.568;2022-08-19T01:04:05;39.10;;;25.60;;
5616;SDS011;2830;50.656;7.568;2022-08-19T01:06:32;35.60;;;23.43;;
5616;SDS011;2830;50.656;7.568;2022-08-19T01:09:01;34.13;;;23.50;;
5616;SDS011;2830;50.656;7.568;2022-08-19T01:11:29;34.60;;;23.60;;
5616;SDS011;2830;50.656;7.568;2022-08-19T01:13:59;46.97;;;23.77;;
5616;SDS011;2830;50.656;7.568;2022-08-19T01:16:26;36.27;;;24.77;;
5616;SDS011;2830;50.656;7.568;2022-08-19T01:18:55;36.40;;;23.50;;
5616;SDS011;2830;50.656;7.568;2022-08-19T01:21:37;35.60;;;24.40;;
5616;SDS011;2830;50.656;7.568;2022-08-19T01:24:39;34.30;;;23.93;;
5616;SDS011;2830;50.656;7.568;2022-08-19T01:27:14;34.17;;;23.40;;
5616;SDS011;2830;50.656;7.568;2022-08-19T01:29:41;38.60;;;26.37;;
5616;SDS011;2830;50.656;7.568;2022-08-19T01:32:10;40.00;;;25.27;;
5616;SDS011;2830;50.656;7.568;2022-08-19T01:34:59;35.20;;;24.20;;
5616;SDS011;2830;50.656;7.568;2022-08-19T01:37:27;34.53;;;24.20;;
5616;SDS011;2830;50.656;7.568;2022-08-19T01:39:55;31.90;;;23.10;;
5616;SDS011;2830;50.656;7.568;2022-08-19T01:42:22;35.00;;;23.33;;
5616;SDS011;2830;50.656;7.568;2022-08-19T01:44:55;35.17;;;24.53;;
5616;SDS011;2830;50.656;7.568;2022-08-19T01:47:23;33.63;;;23.00;;
5616;SDS011;2830;50.656;7.568;2022-08-19T01:49:50;36.67;;;24.20;;
5616;SDS011;2830;50.656;7.568;2022-08-19T01:52:16;33.43;;;22.53;;
5616;SDS011;2830;50.656;7.568;2022-08-19T01:54:43;39.10;;;25.00;;
5616;SDS011;2830;50.656;7.568;2022-08-19T01:57:10;35.77;;;23.53;;
5616;SDS011;2830;50.656;7.568;2022-08-19T01:59:40;35.77;;;24.93;;
5616;SDS011;2830;50.656;7.568;2022-08-19T02:02:08;34.17;;;22.50;;
5616;SDS011;2830;50.656;7.568;2022-08-19T02:04:34;34.90;;;23.37;;
5616;SDS011;2830;50.656;7.568;2022-08-19T02:07:03;33.93;;;24.60;;
5616;SDS011;2830;50.656;7.568;2022-08-19T02:09:31;37.03;;;23.87;;
5616;SDS011;2830;50.656;7.568;2022-08-19T02:11:58;35.27;;;24.67;;
5616;SDS011;2830;50.656;7.568;2022-08-19T02:14:26;36.50;;;24.90;;
5616;SDS011;2830;50.656;7.568;2022-08-19T02:16:53;31.10;;;20.80;;
5616;SDS011;2830;50.656;7.568;2022-08-19T02:19:20;36.17;;;26.07;;
5616;SDS011;2830;50.656;7.568;2022-08-19T02:21:46;36.77;;;23.57;;
5616;SDS011;2830;50.656;7.568;2022-08-19T02:24:13;33.17;;;22.90;;
5616;SDS011;2830;50.656;7.568;2022-08-19T02:26:40;35.73;;;23.60;;
5616;SDS011;2830;50.656;7.568;2022-08-19T02:29:07;33.40;;;23.63;;
5616;SDS011;2830;50.656;7.568;2022-08-19T02:31:33;36.80;;;24.80;;
5616;SDS011;2830;50.656;7.568;2022-08-19T02:34:00;34.43;;;23.60;;
5616;SDS011;2830;50.656;7.568;2022-08-19T02:36:30;35.27;;;23.20;;
5616;SDS011;2830;50.656;7.568;2022-08-19T02:38:57;33.70;;;22.73;;
5616;SDS011;2830;50.656;7.568;2022-08-19T02:41:25;33.87;;;23.37;;
5616;SDS011;2830;50.656;7.568;2022-08-19T02:43:56;34.87;;;23.93;;
5616;SDS011;2830;50.656;7.568;2022-08-19T02:49:19;33.40;;;23.27;;
5616;SDS011;2830;50.656;7.568;2022-08-19T02:51:46;36.27;;;23.87;;
5616;SDS011;2830;50.656;7.568;2022-08-19T02:54:14;32.87;;;21.10;;
5616;SDS011;2830;50.656;7.568;2022-08-19T02:56:42;34.60;;;22.73;;
5616;SDS011;2830;50.656;7.568;2022-08-19T02:59:09;40.57;;;24.27;;
5616;SDS011;2830;50.656;7.568;2022-08-19T03:01:37;33.90;;;22.80;;
5616;SDS011;2830;50.656;7.568;2022-08-19T03:04:07;35.17;;;23.50;;
5616;SDS011;2830;50.656;7.568;2022-08-19T03:06:39;33.90;;;23.47;;
5616;SDS011;2830;50.656;7.568;2022-08-19T03:09:06;35.37;;;25.47;;
5616;SDS011;2830;50.656;7.568;2022-08-19T03:11:34;37.53;;;23.83;;
5616;SDS011;2830;50.656;7.568;2022-08-19T03:14:02;34.60;;;23.40;;
5616;SDS011;2830;50.656;7.568;2022-08-19T03:16:30;37.37;;;24.80;;
5616;SDS011;2830;50.656;7.568;2022-08-19T03:19:01;39.53;;;25.00;;
5616;SDS011;2830;50.656;7.568;2022-08-19T03:21:29;37.17;;;24.77;;
5616;SDS011;2830;50.656;7.568;2022-08-19T03:23:58;34.90;;;24.10;;
5616;SDS011;2830;50.656;7.568;2022-08-19T03:26:27;36.70;;;23.80;;
5616;SDS011;2830;50.656;7.568;2022-08-19T03:28:54;35.07;;;23.23;;
5616;SDS011;2830;50.656;7.568;2022-08-19T03:31:24;35.67;;;23.30;;
5616;SDS011;2830;50.656;7.568;2022-08-19T03:34:15;35.67;;;23.00;;
5616;SDS011;2830;50.656;7.568;2022-08-19T03:36:45;35.80;;;23.40;;
5616;SDS011;2830;50.656;7.568;2022-08-19T03:39:13;34.27;;;23.53;;
5616;SDS011;2830;50.656;7.568;2022-08-19T03:41:41;36.87;;;23.77;;
5616;SDS011;2830;50.656;7.568;2022-08-19T03:44:13;34.60;;;23.87;;
5616;SDS011;2830;50.656;7.568;2022-08-19T03:46:43;34.63;;;22.67;;
5616;SDS011;2830;50.656;7.568;2022-08-19T03:49:11;32.43;;;22.70;;
5616;SDS011;2830;50.656;7.568;2022-08-19T03:51:40;38.13;;;22.50;;
5616;SDS011;2830;50.656;7.568;2022-08-19T03:54:08;36.07;;;23.67;;
5616;SDS011;2830;50.656;7.568;2022-08-19T03:56:37;34.27;;;23.33;;
5616;SDS011;2830;50.656;7.568;2022-08-19T03:59:06;32.30;;;22.30;;
5616;SDS011;2830;50.656;7.568;2022-08-19T04:01:36;33.50;;;23.23;;
5616;SDS011;2830;50.656;7.568;2022-08-19T04:04:03;34.77;;;23.20;;
5616;SDS011;2830;50.656;7.568;2022-08-19T04:06:31;32.50;;;22.00;;
5616;SDS011;2830;50.656;7.568;2022-08-19T04:09:06;34.03;;;22.43;;
5616;SDS011;2830;50.656;7.568;2022-08-19T04:11:42;31.33;;;21.07;;
5616;SDS011;2830;50.656;7.568;2022-08-19T04:14:13;32.70;;;21.60;;
5616;SDS011;2830;50.656;7.568;2022-08-19T04:16:42;37.23;;;21.90;;
5616;SDS011;2830;50.656;7.568;2022-08-19T04:19:12;36.03;;;22.00;;
5616;SDS011;2830;50.656;7.568;2022-08-19T04:21:40;34.40;;;22.60;;
5616;SDS011;2830;50.656;7.568;2022-08-19T04:24:08;39.20;;;23.60;;
5616;SDS011;2830;50.656;7.568;2022-08-19T04:26:35;34.90;;;22.47;;
5616;SDS011;2830;50.656;7.568;2022-08-19T04:29:04;37.00;;;22.13;;
5616;SDS011;2830;50.656;7.568;2022-08-19T04:31:40;32.30;;;21.33;;
5616;SDS011;2830;50.656;7.568;2022-08-19T04:34:09;34.80;;;22.60;;
5616;SDS011;2830;50.656;7.568;2022-08-19T04:36:39;34.93;;;23.27;;
5616;SDS011;2830;50.656;7.568;2022-08-19T04:39:08;33.53;;;22.00;;
5616;SDS011;2830;50.656;7.568;2022-08-19T04:41:37;35.00;;;23.50;;
5616;SDS011;2830;50.656;7.568;2022-08-19T04:44:22;32.83;;;22.10;;
5616;SDS011;2830;50.656;7.568;2022-08-19T04:46:50;35.67;;;22.77;;
5616;SDS011;2830;50.656;7.568;2022-08-19T04:49:18;34.40;;;22.60;;
5616;SDS011;2830;50.656;7.568;2022-08-19T04:51:48;35.67;;;22.73;;
5616;SDS011;2830;50.656;7.568;2022-08-19T04:54:18;32.53;;;21.80;;
5616;SDS011;2830;50.656;7.568;2022-08-19T04:57:04;35.07;;;22.63;;
5616;SDS011;2830;50.656;7.568;2022-08-19T04:59:33;33.57;;;20.83;;
5616;SDS011;2830;50.656;7.568;2022-08-19T05:02:01;39.10;;;22.70;;
5616;SDS011;2830;50.656;7.568;2022-08-19T05:04:29;35.47;;;24.33;;
5616;SDS011;2830;50.656;7.568;2022-08-19T05:06:59;35.40;;;23.10;;
5616;SDS011;2830;50.656;7.568;2022-08-19T05:09:27;35.20;;;22.63;;
5616;SDS011;2830;50.656;7.568;2022-08-19T05:12:15;35.40;;;22.40;;
5616;SDS011;2830;50.656;7.568;2022-08-19T05:14:43;32.93;;;20.43;;
5616;SDS011;2830;50.656;7.568;2022-08-19T05:17:12;31.73;;;21.37;;
5616;SDS011;2830;50.656;7.568;2022-08-19T05:19:53;50.90;;;24.13;;
5616;SDS011;2830;50.656;7.568;2022-08-19T05:22:38;35.23;;;22.20;;
5616;SDS011;2830;50.656;7.568;2022-08-19T05:25:10;35.47;;;23.10;;
5616;SDS011;2830;50.656;7.568;2022-08-19T05:27:40;36.07;;;23.43;;
5616;SDS011;2830;50.656;7.568;2022-08-19T05:30:08;31.93;;;21.53;;
5616;SDS011;2830;50.656;7.568;2022-08-19T05:32:36;31.70;;;20.77;;
5616;SDS011;2830;50.656;7.568;2022-08-19T05:35:04;33.17;;;22.43;;
5616;SDS011;2830;50.656;7.568;2022-08-19T05:37:31;34.93;;;22.30;;
5616;SDS011;2830;50.656;7.568;2022-08-19T05:39:59;35.50;;;22.37;;
5616;SDS011;2830;50.656;7.568;2022-08-19T05:42:26;32.63;;;22.20;;
5616;SDS011;2830;50.656;7.568;2022-08-19T05:44:53;31.07;;;21.60;;
5616;SDS011;2830;50.656;7.568;2022-08-19T05:47:22;35.33;;;24.43;;
5616;SDS011;2830;50.656;7.568;2022-08-19T05:49:49;32.47;;;22.50;;
5616;SDS011;2830;50.656;7.568;2022-08-19T05:52:16;36.57;;;23.20;;
5616;SDS011;2830;50.656;7.568;2022-08-19T05:54:51;31.30;;;21.73;;
5616;SDS011;2830;50.656;7.568;2022-08-19T05:57:21;34.50;;;23.37;;
5616;SDS011;2830;50.656;7.568;2022-08-19T05:59:48;33.20;;;20.30;;
5616;SDS011;2830;50.656;7.568;2022-08-19T06:02:23;33.10;;;21.10;;
5616;SDS011;2830;50.656;7.568;2022-08-19T06:04:49;32.20;;;22.10;;
5616;SDS011;2830;50.656;7.568;2022-08-19T06:07:16;29.80;;;20.03;;
5616;SDS011;2830;50.656;7.568;2022-08-19T06:09:43;30.67;;;21.27;;
5616;SDS011;2830;50.656;7.568;2022-08-19T06:12:25;36.03;;;23.10;;
5616;SDS011;2830;50.656;7.568;2022-08-19T06:14:55;35.63;;;24.33;;
5616;SDS011;2830;50.656;7.568;2022-08-19T06:17:26;40.40;;;26.70;;
5616;SDS011;2830;50.656;7.568;2022-08-19T06:19:56;32.87;;;23.30;;
5616;SDS011;2830;50.656;7.568;2022-08-19T06:22:23;32.33;;;22.77;;
5616;SDS011;2830;50.656;7.568;2022-08-19T06:24:49;32.70;;;22.60;;
5616;SDS011;2830;50.656;7.568;2022-08-19T06:27:19;29.10;;;19.77;;
5616;SDS011;2830;50.656;7.568;2022-08-19T06:29:46;29.63;;;20.53;;
5616;SDS011;2830;50.656;7.568;2022-08-19T06:32:14;31.47;;;22.80;;
5616;SDS011;2830;50.656;7.568;2022-08-19T06:34:42;30.17;;;20.30;;
5616;SDS011;2830;50.656;7.568;2022-08-19T06:37:09;31.43;;;21.27;;
5616;SDS011;2830;50.656;7.568;2022-08-19T06:39:37;28.37;;;18.60;;
5616;SDS011;2830;50.656;7.568;2022-08-19T06:42:05;28.50;;;19.50;;
5616;SDS011;2830;50.656;7.568;2022-08-19T06:44:37;29.50;;;20.93;;
5616;SDS011;2830;50.656;7.568;2022-08-19T06:47:09;29.17;;;20.80;;
5616;SDS011;2830;50.656;7.568;2022-08-19T06:49:40;30.17;;;20.73;;
5616;SDS011;2830;50.656;7.568;2022-08-19T06:52:07;30.30;;;20.57;;
5616;SDS011;2830;50.656;7.568;2022-08-19T06:54:39;33.23;;;23.43;;
5616;SDS011;2830;50.656;7.568;2022-08-19T06:57:21;37.90;;;28.63;;
5616;SDS011;2830;50.656;7.568;2022-08-19T06:59:48;47.33;;;33.07;;
5616;SDS011;2830;50.656;7.568;2022-08-19T07:02:14;48.93;;;35.30;;
5616;SDS011;2830;50.656;7.568;2022-08-19T07:04:46;47.40;;;34.20;;
5616;SDS011;2830;50.656;7.568;2022-08-19T07:07:18;52.40;;;35.00;;
5616;SDS011;2830;50.656;7.568;2022-08-19T07:09:47;53.23;;;38.87;;
5616;SDS011;2830;50.656;7.568;2022-08-19T07:12:25;54.90;;;38.07;;
5616;SDS011;2830;50.656;7.568;2022-08-19T07:15:00;55.47;;;39.00;;
5616;SDS011;2830;50.656;7.568;2022-08-19T07:17:29;58.20;;;41.70;;
5616;SDS011;2830;50.656;7.568;2022-08-19T07:19:59;56.40;;;41.53;;
5616;SDS011;2830;50.656;7.568;2022-08-19T07:22:34;58.70;;;40.37;;
5616;SDS011;2830;50.656;7.568;2022-08-19T07:25:02;60.30;;;41.27;;
5616;SDS011;2830;50.656;7.568;2022-08-19T07:27:30;52.93;;;39.17;;
5616;SDS011;2830;50.656;7.568;2022-08-19T07:29:59;54.07;;;37.50;;
5616;SDS011;2830;50.656;7.568;2022-08-19T07:32:26;51.57;;;38.97;;
5616;SDS011;2830;50.656;7.568;2022-08-19T07:34:53;48.47;;;37.23;;
5616;SDS011;2830;50.656;7.568;2022-08-19T07:37:22;48.07;;;36.30;;
5616;SDS011;2830;50.656;7.568;2022-08-19T07:39:54;49.60;;;35.40;;
5616;SDS011;2830;50.656;7.568;2022-08-19T07:42:21;49.20;;;36.40;;
5616;SDS011;2830;50.656;7.568;2022-08-19T07:44:48;50.17;;;35.80;;
5616;SDS011;2830;50.656;7.568;2022-08-19T07:47:16;45.40;;;33.57;;
5616;SDS011;2830;50.656;7.568;2022-08-19T07:50:04;48.80;;;35.90;;
5616;SDS011;2830;50.656;7.568;2022-08-19T07:52:34;45.37;;;32.77;;
5616;SDS011;2830;50.656;7.568;2022-08-19T07:55:03;45.03;;;32.30;;
5616;SDS011;2830;50.656;7.568;2022-08-19T07:57:30;45.10;;;31.43;;
5616;SDS011;2830;50.656;7.568;2022-08-19T07:59:57;40.63;;;30.27;;
5616;SDS011;2830;50.656;7.568;2022-08-19T08:02:24;43.47;;;29.37;;
5616;SDS011;2830;50.656;7.568;2022-08-19T08:04:51;33.90;;;25.17;;
5616;SDS011;2830;50.656;7.568;2022-08-19T08:07:36;36.53;;;26.80;;
5616;SDS011;2830;50.656;7.568;2022-08-19T08:10:21;34.70;;;27.27;;
5616;SDS011;2830;50.656;7.568;2022-08-19T08:12:49;36.23;;;27.07;;
5616;SDS011;2830;50.656;7.568;2022-08-19T08:15:35;38.80;;;28.07;;
5616;SDS011;2830;50.656;7.568;2022-08-19T08:18:09;38.80;;;27.07;;
5616;SDS011;2830;50.656;7.568;2022-08-19T08:20:37;38.93;;;24.30;;
5616;SDS011;2830;50.656;7.568;2022-08-19T08:23:03;33.03;;;24.80;;
5616;SDS011;2830;50.656;7.568;2022-08-19T08:25:48;42.03;;;30.47;;
5616;SDS011;2830;50.656;7.568;2022-08-19T08:28:16;39.20;;;22.03;;
5616;SDS011;2830;50.656;7.568;2022-08-19T08:30:43;34.87;;;24.33;;
5616;SDS011;2830;50.656;7.568;2022-08-19T08:33:17;31.83;;;22.70;;
5616;SDS011;2830;50.656;7.568;2022-08-19T08:36:06;26.17;;;17.70;;
5616;SDS011;2830;50.656;7.568;2022-08-19T08:38:38;25.20;;;17.70;;
5616;SDS011;2830;50.656;7.568;2022-08-19T08:43:56;26.57;;;17.70;;
5616;SDS011;2830;50.656;7.568;2022-08-19T08:46:34;24.90;;;15.60;;
5616;SDS011;2830;50.656;7.568;2022-08-19T08:51:56;24.33;;;14.70;;
5616;SDS011;2830;50.656;7.568;2022-08-19T08:54:29;21.50;;;14.30;;
5616;SDS011;2830;50.656;7.568;2022-08-19T08:57:02;19.40;;;12.67;;
5616;SDS011;2830;50.656;7.568;2022-08-19T08:59:31;25.90;;;13.47;;
5616;SDS011;2830;50.656;7.568;2022-08-19T09:02:01;20.50;;;11.73;;
5616;SDS011;2830;50.656;7.568;2022-08-19T09:04:29;22.33;;;13.90;;
5616;SDS011;2830;50.656;7.568;2022-08-19T09:07:08;19.70;;;10.13;;
5616;SDS011;2830;50.656;7.568;2022-08-19T09:09:52;22.50;;;12.23;;
5616;SDS011;2830;50.656;7.568;2022-08-19T09:12:35;19.07;;;9.63;;
5616;SDS011;2830;50.656;7.568;2022-08-19T09:15:25;22.07;;;11.73;;
5616;SDS011;2830;50.656;7.568;2022-08-19T09:18:03;18.70;;;9.27;;
5616;SDS011;2830;50.656;7.568;2022-08-19T09:20:32;16.30;;;6.73;;
5616;SDS011;2830;50.656;7.568;2022-08-19T09:22:59;15.73;;;7.80;;
5616;SDS011;2830;50.656;7.568;2022-08-19T09:25:26;16.40;;;7.30;;
5616;SDS011;2830;50.656;7.568;2022-08-19T09:27:55;17.90;;;7.63;;
5616;SDS011;2830;50.656;7.568;2022-08-19T09:30:47;18.80;;;8.10;;
5616;SDS011;2830;50.656;7.568;2022-08-19T09:33:14;20.60;;;8.47;;
5616;SDS011;2830;50.656;7.568;2022-08-19T09:35:42;18.13;;;9.50;;
5616;SDS011;2830;50.656;7.568;2022-08-19T09:38:18;18.63;;;8.13;;
5616;SDS011;2830;50.656;7.568;2022-08-19T09:40:46;17.60;;;9.87;;
5616;SDS011;2830;50.656;7.568;2022-08-19T09:43:13;19.20;;;8.30;;
5616;SDS011;2830;50.656;7.568;2022-08-19T09:45:58;22.53;;;10.20;;
5616;SDS011;2830;50.656;7.568;2022-08-19T09:48:26;23.80;;;12.47;;
5616;SDS011;2830;50.656;7.568;2022-08-19T09:50:53;21.47;;;12.80;;
5616;SDS011;2830;50.656;7.568;2022-08-19T09:53:20;27.87;;;13.07;;
5616;SDS011;2830;50.656;7.568;2022-08-19T09:55:50;19.70;;;10.17;;
5616;SDS011;2830;50.656;7.568;2022-08-19T09:58:17;20.37;;;9.83;;
5616;SDS011;2830;50.656;7.568;2022-08-19T10:00:54;18.13;;;9.53;;
5616;SDS011;2830;50.656;7.568;2022-08-19T10:03:21;22.30;;;10.30;;
5616;SDS011;2830;50.656;7.568;2022-08-19T10:05:55;17.80;;;8.73;;
5616;SDS011;2830;50.656;7.568;2022-08-19T10:08:25;26.67;;;9.87;;
5616;SDS011;2830;50.656;7.568;2022-08-19T10:10:57;19.87;;;10.40;;
5616;SDS011;2830;50.656;7.568;2022-08-19T10:13:44;19.60;;;11.23;;
5616;SDS011;2830;50.656;7.568;2022-08-19T10:16:13;23.93;;;11.37;;
5616;SDS011;2830;50.656;7.568;2022-08-19T10:18:42;21.80;;;11.60;;
5616;SDS011;2830;50.656;7.568;2022-08-19T10:21:15;24.73;;;11.10;;
5616;SDS011;2830;50.656;7.568;2022-08-19T10:23:47;17.97;;;9.20;;
5616;SDS011;2830;50.656;7.568;2022-08-19T10:26:19;21.57;;;11.07;;
5616;SDS011;2830;50.656;7.568;2022-08-19T10:28:52;22.43;;;12.50;;
5616;SDS011;2830;50.656;7.568;2022-08-19T10:31:24;23.90;;;11.90;;
5616;SDS011;2830;50.656;7.568;2022-08-19T10:34:12;20.20;;;11.90;;
5616;SDS011;2830;50.656;7.568;2022-08-19T10:36:53;22.07;;;10.70;;
5616;SDS011;2830;50.656;7.568;2022-08-19T10:39:26;18.97;;;8.87;;
5616;SDS011;2830;50.656;7.568;2022-08-19T10:41:56;19.00;;;9.63;;
5616;SDS011;2830;50.656;7.568;2022-08-19T10:44:23;18.80;;;9.30;;
5616;SDS011;2830;50.656;7.568;2022-08-19T10:46:57;18.70;;;8.20;;
5616;SDS011;2830;50.656;7.568;2022-08-19T10:49:25;22.00;;;9.53;;
5616;SDS011;2830;50.656;7.568;2022-08-19T10:51:53;19.70;;;8.43;;
5616;SDS011;2830;50.656;7.568;2022-08-19T10:54:46;21.43;;;9.23;;
5616;SDS011;2830;50.656;7.568;2022-08-19T10:57:33;21.63;;;8.13;;
5616;SDS011;2830;50.656;7.568;2022-08-19T11:00:21;18.60;;;7.97;;
5616;SDS011;2830;50.656;7.568;2022-08-19T11:02:51;17.83;;;7.37;;
5616;SDS011;2830;50.656;7.568;2022-08-19T11:06:11;18.53;;;8.60;;
5616;SDS011;2830;50.656;7.568;2022-08-19T11:08:39;17.67;;;8.67;;
5616;SDS011;2830;50.656;7.568;2022-08-19T11:11:07;19.40;;;8.27;;
5616;SDS011;2830;50.656;7.568;2022-08-19T11:13:36;15.43;;;5.37;;
5616;SDS011;2830;50.656;7.568;2022-08-19T11:18:36;17.93;;;7.10;;
5616;SDS011;2830;50.656;7.568;2022-08-19T11:21:09;17.77;;;6.60;;
5616;SDS011;2830;50.656;7.568;2022-08-19T11:23:52;19.73;;;8.47;;
5616;SDS011;2830;50.656;7.568;2022-08-19T11:26:21;17.40;;;8.60;;
5616;SDS011;2830;50.656;7.568;2022-08-19T11:28:50;20.50;;;8.17;;
5616;SDS011;2830;50.656;7.568;2022-08-19T11:31:27;23.97;;;8.77;;
5616;SDS011;2830;50.656;7.568;2022-08-19T11:34:02;19.40;;;8.87;;
5616;SDS011;2830;50.656;7.568;2022-08-19T11:36:33;17.90;;;7.50;;
5616;SDS011;2830;50.656;7.568;2022-08-19T11:39:03;16.40;;;7.20;;
5616;SDS011;2830;50.656;7.568;2022-08-19T11:41:31;17.43;;;7.87;;
5616;SDS011;2830;50.656;7.568;2022-08-19T11:43:58;19.40;;;8.57;;
5616;SDS011;2830;50.656;7.568;2022-08-19T11:46:25;28.57;;;10.00;;
5616;SDS011;2830;50.656;7.568;2022-08-19T11:48:56;20.13;;;8.63;;
5616;SDS011;2830;50.656;7.568;2022-08-19T11:51:23;23.13;;;10.40;;
5616;SDS011;2830;50.656;7.568;2022-08-19T11:53:51;20.13;;;8.47;;
5616;SDS011;2830;50.656;7.568;2022-08-19T11:56:20;20.80;;;9.93;;
5616;SDS011;2830;50.656;7.568;2022-08-19T11:58:48;19.80;;;8.83;;
5616;SDS011;2830;50.656;7.568;2022-08-19T12:01:16;16.87;;;8.23;;
5616;SDS011;2830;50.656;7.568;2022-08-19T12:03:45;20.67;;;9.03;;
5616;SDS011;2830;50.656;7.568;2022-08-19T12:06:14;22.67;;;11.80;;
5616;SDS011;2830;50.656;7.568;2022-08-19T12:08:42;28.50;;;13.20;;
5616;SDS011;2830;50.656;7.568;2022-08-19T12:11:11;22.63;;;10.47;;
5616;SDS011;2830;50.656;7.568;2022-08-19T12:13:39;22.37;;;10.37;;
5616;SDS011;2830;50.656;7.568;2022-08-19T12:16:11;22.30;;;13.57;;
5616;SDS011;2830;50.656;7.568;2022-08-19T12:18:41;21.97;;;11.87;;
5616;SDS011;2830;50.656;7.568;2022-08-19T12:21:16;20.17;;;10.60;;
5616;SDS011;2830;50.656;7.568;2022-08-19T12:23:48;21.50;;;11.90;;
5616;SDS011;2830;50.656;7.568;2022-08-19T12:26:20;19.30;;;10.60;;
5616;SDS011;2830;50.656;7.568;2022-08-19T12:28:48;23.63;;;11.60;;
5616;SDS011;2830;50.656;7.568;2022-08-19T12:31:14;19.43;;;9.83;;
5616;SDS011;2830;50.656;7.568;2022-08-19T12:33:42;23.87;;;12.30;;
5616;SDS011;2830;50.656;7.568;2022-08-19T12:36:10;25.67;;;13.07;;
5616;SDS011;2830;50.656;7.568;2022-08-19T12:38:39;21.17;;;11.17;;
5616;SDS011;2830;50.656;7.568;2022-08-19T12:41:06;22.43;;;9.87;;
5616;SDS011;2830;50.656;7.568;2022-08-19T12:43:36;23.83;;;10.07;;
5616;SDS011;2830;50.656;7.568;2022-08-19T12:46:04;22.30;;;9.80;;
5616;SDS011;2830;50.656;7.568;2022-08-19T12:48:35;43.17;;;11.83;;
5616;SDS011;2830;50.656;7.568;2022-08-19T12:51:08;21.40;;;9.30;;
5616;SDS011;2830;50.656;7.568;2022-08-19T12:53:36;18.97;;;8.83;;
5616;SDS011;2830;50.656;7.568;2022-08-19T12:56:04;20.47;;;8.77;;
5616;SDS011;2830;50.656;7.568;2022-08-19T12:58:38;19.33;;;9.30;;
5616;SDS011;2830;50.656;7.568;2022-08-19T13:01:06;19.17;;;8.83;;
5616;SDS011;2830;50.656;7.568;2022-08-19T13:03:34;21.60;;;8.80;;
5616;SDS011;2830;50.656;7.568;2022-08-19T13:06:05;18.13;;;8.93;;
5616;SDS011;2830;50.656;7.568;2022-08-19T13:08:33;17.33;;;7.50;;
5616;SDS011;2830;50.656;7.568;2022-08-19T13:11:06;21.70;;;9.97;;
5616;SDS011;2830;50.656;7.568;2022-08-19T13:13:45;17.70;;;9.00;;
5616;SDS011;2830;50.656;7.568;2022-08-19T13:16:13;18.10;;;7.53;;
5616;SDS011;2830;50.656;7.568;2022-08-19T13:18:41;26.80;;;9.80;;
5616;SDS011;2830;50.656;7.568;2022-08-19T13:21:10;23.10;;;10.27;;
5616;SDS011;2830;50.656;7.568;2022-08-19T13:23:39;20.40;;;9.80;;
5616;SDS011;2830;50.656;7.568;2022-08-19T13:26:08;21.13;;;11.03;;
5616;SDS011;2830;50.656;7.568;2022-08-19T13:28:37;20.17;;;9.13;;
5616;SDS011;2830;50.656;7.568;2022-08-19T13:31:25;18.70;;;8.93;;
5616;SDS011;2830;50.656;7.568;2022-08-19T13:34:17;17.77;;;7.63;;
5616;SDS011;2830;50.656;7.568;2022-08-19T13:36:45;18.00;;;7.00;;
5616;SDS011;2830;50.656;7.568;2022-08-19T13:39:12;21.93;;;9.10;;
5616;SDS011;2830;50.656;7.568;2022-08-19T13:41:43;17.13;;;7.87;;
5616;SDS011;2830;50.656;7.568;2022-08-19T13:44:14;18.67;;;7.80;;
5616;SDS011;2830;50.656;7.568;2022-08-19T13:46:44;20.73;;;9.50;;
5616;SDS011;2830;50.656;7.568;2022-08-19T13:49:12;20.60;;;10.57;;
5616;SDS011;2830;50.656;7.568;2022-08-19T13:51:43;19.30;;;9.57;;
5616;SDS011;2830;50.656;7.568;2022-08-19T13:54:11;20.67;;;9.53;;
5616;SDS011;2830;50.656;7.568;2022-08-19T13:56:42;23.20;;;8.33;;
5616;SDS011;2830;50.656;7.568;2022-08-19T13:59:11;18.90;;;9.30;;
5616;SDS011;2830;50.656;7.568;2022-08-19T14:01:39;17.60;;;7.70;;
5616;SDS011;2830;50.656;7.568;2022-08-19T14:04:06;18.70;;;7.30;;
5616;SDS011;2830;50.656;7.568;2022-08-19T14:06:33;16.70;;;6.10;;
5616;SDS011;2830;50.656;7.568;2022-08-19T14:09:00;18.70;;;6.37;;
5616;SDS011;2830;50.656;7.568;2022-08-19T14:11:28;17.73;;;6.10;;
5616;SDS011;2830;50.656;7.568;2022-08-19T14:13:55;15.30;;;6.30;;
5616;SDS011;2830;50.656;7.568;2022-08-19T14:16:22;16.43;;;5.40;;
5616;SDS011;2830;50.656;7.568;2022-08-19T14:18:49;17.90;;;7.00;;
5616;SDS011;2830;50.656;7.568;2022-08-19T14:21:17;23.77;;;7.80;;
5616;SDS011;2830;50.656;7.568;2022-08-19T14:23:46;16.37;;;6.30;;
5616;SDS011;2830;50.656;7.568;2022-08-19T14:26:14;18.27;;;6.80;;
5616;SDS011;2830;50.656;7.568;2022-08-19T14:28:43;16.40;;;6.60;;
5616;SDS011;2830;50.656;7.568;2022-08-19T14:31:11;17.90;;;7.10;;
5616;SDS011;2830;50.656;7.568;2022-08-19T14:33:39;16.10;;;6.73;;
5616;SDS011;2830;50.656;7.568;2022-08-19T14:36:06;16.77;;;7.30;;
5616;SDS011;2830;50.656;7.568;2022-08-19T14:38:33;17.60;;;6.30;;
5616;SDS011;2830;50.656;7.568;2022-08-19T14:41:07;19.33;;;7.30;;
5616;SDS011;2830;50.656;7.568;2022-08-19T14:43:36;22.77;;;7.73;;
5616;SDS011;2830;50.656;7.568;2022-08-19T14:46:03;19.10;;;7.80;;
5616;SDS011;2830;50.656;7.568;2022-08-19T14:48:29;18.93;;;8.90;;
5616;SDS011;2830;50.656;7.568;2022-08-19T14:50:56;19.93;;;7.90;;
5616;SDS011;2830;50.656;7.568;2022-08-19T14:53:23;17.10;;;7.97;;
5616;SDS011;2830;50.656;7.568;2022-08-19T14:55:49;18.33;;;8.57;;
5616;SDS011;2830;50.656;7.568;2022-08-19T14:58:16;16.90;;;6.93;;
5616;SDS011;2830;50.656;7.568;2022-08-19T15:00:55;15.50;;;6.87;;
5616;SDS011;2830;50.656;7.568;2022-08-19T15:03:24;16.87;;;7.70;;
5616;SDS011;2830;50.656;7.568;2022-08-19T15:05:52;17.50;;;8.60;;
5616;SDS011;2830;50.656;7.568;2022-08-19T15:08:18;18.17;;;8.13;;
5616;SDS011;2830;50.656;7.568;2022-08-19T15:10:51;17.97;;;7.33;;
5616;SDS011;2830;50.656;7.568;2022-08-19T15:13:18;23.70;;;7.63;;
5616;SDS011;2830;50.656;7.568;2022-08-19T15:15:45;18.43;;;6.60;;
5616;SDS011;2830;50.656;7.568;2022-08-19T15:18:13;19.57;;;7.23;;
5616;SDS011;2830;50.656;7.568;2022-08-19T15:20:40;17.40;;;7.00;;
5616;SDS011;2830;50.656;7.568;2022-08-19T15:23:07;16.83;;;7.30;;
5616;SDS011;2830;50.656;7.568;2022-08-19T15:25:34;17.40;;;7.50;;